Time;durP1;ratioP1;P1;durP2;ratioP2;P2;SDS_P1;SDS_P2;PMS_P1;PMS_P2;Temp;Humidity;BMP_temperature;BMP_pressure;BME280_temperature;BME280_humidity;BME280_pressure;Samples;Min_cycle;Max_cycle;Signal;HPM_P1;HPM_P2
2023/06/14 00:01:48;;;;;;;6.28;3.17;;;23.60;34.70;;;;;;5036501;28;20127;-61
2023/06/14 00:04:17;;;;;;;5.72;2.92;;;23.60;34.80;;;;;;5037176;28;20029;-61
2023/06/14 00:06:48;;;;;;;6.57;3.17;;;23.50;34.90;;;;;;5035319;28;20108;-61
2023/06/14 00:09:14;;;;;;;7.22;2.90;;;23.50;34.90;;;;;;5032312;28;20026;-62
2023/06/14 00:11:43;;;;;;;7.82;2.95;;;23.50;35.00;;;;;;5034524;28;20331;-62
2023/06/14 00:14:09;;;;;;;5.85;2.85;;;23.40;34.80;;;;;;5032429;28;20115;-61
2023/06/14 00:16:35;;;;;;;6.70;2.88;;;23.40;35.20;;;;;;5029917;28;20072;-62
2023/06/14 00:19:05;;;;;;;6.88;2.90;;;23.40;35.20;;;;;;5034349;28;20461;-62
2023/06/14 00:21:31;;;;;;;7.20;3.22;;;23.40;35.30;;;;;;5030787;28;20112;-62
2023/06/14 00:23:58;;;;;;;6.80;2.92;;;23.40;35.50;;;;;;5031141;28;20053;-62
2023/06/14 00:26:26;;;;;;;5.88;2.58;;;23.40;35.60;;;;;;5023597;28;20371;-61
2023/06/14 00:28:52;;;;;;;7.40;2.90;;;23.30;35.60;;;;;;5032421;28;20106;-62
2023/06/14 00:31:18;;;;;;;7.57;3.17;;;23.30;35.70;;;;;;5035877;28;20028;-62
2023/06/14 00:33:44;;;;;;;5.95;2.90;;;23.30;35.80;;;;;;5033669;28;20030;-61
2023/06/14 00:36:11;;;;;;;8.63;3.00;;;23.30;35.80;;;;;;5033938;28;20429;-62
2023/06/14 00:38:37;;;;;;;5.80;2.58;;;23.30;35.90;;;;;;5038343;28;20033;-62
2023/06/14 00:41:03;;;;;;;5.45;2.58;;;23.20;35.90;;;;;;5035186;28;20175;-61
2023/06/14 00:43:29;;;;;;;6.97;3.38;;;23.20;36.00;;;;;;5033827;28;20112;-62
2023/06/14 00:45:55;;;;;;;8.13;3.03;;;23.10;35.90;;;;;;5034407;28;20017;-61
2023/06/14 00:48:21;;;;;;;7.20;3.38;;;23.20;36.10;;;;;;5033367;28;20093;-61
2023/06/14 00:50:49;;;;;;;6.15;2.85;;;23.10;36.10;;;;;;5036326;28;20577;-62
2023/06/14 00:53:17;;;;;;;7.35;3.00;;;23.10;36.30;;;;;;5034488;28;20095;-62
2023/06/14 00:55:44;;;;;;;6.85;3.05;;;23.10;36.30;;;;;;5021872;28;20063;-62
2023/06/14 00:58:11;;;;;;;5.35;2.50;;;23.10;36.30;;;;;;5033369;28;20450;-62
2023/06/14 01:00:37;;;;;;;5.72;2.53;;;23.10;36.50;;;;;;5036228;28;20048;-61
2023/06/14 01:03:03;;;;;;;6.75;3.00;;;23.00;36.50;;;;;;5032176;28;20026;-62
2023/06/14 01:05:30;;;;;;;6.22;2.55;;;23.00;36.50;;;;;;5034295;28;20041;-62
2023/06/14 01:08:09;;;;;;;6.78;2.67;;;23.00;36.50;;;;;;5028586;28;20032;-61
2023/06/14 01:11:08;;;;;;;7.95;2.90;;;23.00;36.50;;;;;;5032735;28;20026;-61
2023/06/14 01:13:37;;;;;;;7.45;2.95;;;23.00;36.60;;;;;;5020772;28;20172;-62
2023/06/14 01:16:04;;;;;;;5.68;2.70;;;22.90;36.60;;;;;;5034809;28;20088;-62
2023/06/14 01:18:30;;;;;;;6.93;2.70;;;22.90;36.80;;;;;;5027849;28;20357;-62
2023/06/14 01:20:56;;;;;;;6.28;2.72;;;22.90;36.80;;;;;;5034813;28;20128;-61
2023/06/14 01:23:25;;;;;;;6.65;2.70;;;22.90;36.80;;;;;;5031001;28;20435;-61
2023/06/14 01:25:52;;;;;;;8.40;3.00;;;22.80;36.80;;;;;;5031299;28;20061;-62
2023/06/14 01:28:20;;;;;;;7.13;2.95;;;22.80;36.90;;;;;;5029562;28;20049;-61
2023/06/14 01:30:54;;;;;;;5.65;2.70;;;22.80;36.90;;;;;;5029755;28;20017;-62
2023/06/14 01:33:22;;;;;;;6.63;2.53;;;22.80;36.80;;;;;;5022999;28;20041;-61
2023/06/14 01:35:51;;;;;;;5.78;2.78;;;22.80;36.90;;;;;;5028899;28;20454;-61
2023/06/14 01:38:22;;;;;;;7.10;3.10;;;22.80;37.00;;;;;;5032632;28;20190;-61
2023/06/14 01:40:50;;;;;;;7.75;2.92;;;22.70;37.10;;;;;;5031886;28;20022;-61
2023/06/14 01:43:18;;;;;;;8.07;2.70;;;22.70;37.10;;;;;;5033344;28;20442;-61
2023/06/14 01:45:47;;;;;;;5.93;2.72;;;22.70;37.10;;;;;;5028524;28;20037;-62
2023/06/14 01:48:14;;;;;;;5.70;2.67;;;22.70;37.20;;;;;;5032883;28;20086;-61
2023/06/14 01:50:40;;;;;;;10.20;2.60;;;22.60;37.20;;;;;;5031216;28;20424;-61
2023/06/14 01:53:07;;;;;;;6.28;2.80;;;22.60;37.30;;;;;;5035101;28;20025;-61
2023/06/14 01:55:43;;;;;;;6.57;2.75;;;22.60;37.30;;;;;;5025495;28;20037;-61
2023/06/14 01:58:09;;;;;;;7.10;3.00;;;22.60;37.30;;;;;;5031443;28;20148;-61
2023/06/14 02:00:35;;;;;;;8.57;2.40;;;22.60;37.40;;;;;;5031474;28;20474;-61
2023/06/14 02:03:04;;;;;;;5.57;2.55;;;22.60;37.50;;;;;;5026248;28;20034;-61
2023/06/14 02:05:30;;;;;;;8.23;3.15;;;22.50;37.50;;;;;;5033118;28;20435;-61
2023/06/14 02:07:56;;;;;;;5.82;2.83;;;22.50;37.50;;;;;;5028395;28;20022;-61
2023/06/14 02:10:22;;;;;;;6.90;2.70;;;22.50;37.60;;;;;;5031491;28;20354;-61
2023/06/14 02:12:48;;;;;;;5.72;2.38;;;22.50;37.60;;;;;;5027636;28;20430;-61
2023/06/14 02:15:16;;;;;;;5.75;2.80;;;22.50;37.70;;;;;;5032417;28;20022;-61
2023/06/14 02:17:43;;;;;;;6.80;2.88;;;22.50;37.70;;;;;;5033099;28;20029;-61
2023/06/14 02:20:10;;;;;;;7.80;2.53;;;22.50;37.70;;;;;;5032045;28;20025;-61
2023/06/14 02:22:35;;;;;;;6.03;2.72;;;22.40;37.70;;;;;;5033724;28;20091;-61
2023/06/14 02:25:01;;;;;;;6.22;2.38;;;22.40;37.70;;;;;;5032424;28;20530;-61
2023/06/14 02:27:27;;;;;;;8.15;2.88;;;22.40;37.80;;;;;;5033445;28;20442;-61
2023/06/14 02:29:53;;;;;;;6.53;2.65;;;22.40;37.90;;;;;;5032348;28;20029;-61
2023/06/14 02:32:19;;;;;;;6.32;2.53;;;22.40;37.90;;;;;;5032380;28;20124;-62
2023/06/14 02:34:49;;;;;;;7.78;2.78;;;22.30;38.00;;;;;;5032054;28;20360;-62
2023/06/14 02:37:16;;;;;;;6.10;2.72;;;22.30;38.00;;;;;;5033526;28;20029;-62
2023/06/14 02:39:42;;;;;;;6.47;2.65;;;22.30;38.10;;;;;;5025573;28;20021;-61
2023/06/14 02:42:07;;;;;;;9.70;2.92;;;22.30;38.20;;;;;;5024111;28;20107;-62
2023/06/14 02:44:33;;;;;;;7.13;2.88;;;22.20;38.20;;;;;;5027164;28;20030;-62
2023/06/14 02:47:00;;;;;;;6.07;2.42;;;22.20;38.20;;;;;;5031780;28;20029;-61
2023/06/14 02:49:26;;;;;;;5.57;2.63;;;22.20;38.30;;;;;;5028528;28;20060;-61
2023/06/14 02:51:54;;;;;;;5.60;2.55;;;22.20;38.30;;;;;;5024222;28;20108;-61
2023/06/14 02:54:20;;;;;;;6.20;3.10;;;22.20;38.40;;;;;;5026025;28;20065;-61
2023/06/14 02:56:45;;;;;;;6.88;2.40;;;22.20;38.50;;;;;;5033241;28;20036;-61
2023/06/14 02:59:13;;;;;;;6.47;2.72;;;22.10;38.50;;;;;;5031218;28;20025;-61
2023/06/14 03:01:41;;;;;;;6.03;2.90;;;22.10;38.60;;;;;;5019580;28;20521;-62
2023/06/14 03:04:10;;;;;;;10.20;2.72;;;22.10;38.60;;;;;;5009475;28;20031;-62
2023/06/14 03:06:39;;;;;;;7.75;2.60;;;22.00;38.60;;;;;;5040106;28;20029;-61
2023/06/14 03:09:05;;;;;;;6.63;2.72;;;22.00;38.80;;;;;;5025489;28;20114;-61
2023/06/14 03:11:33;;;;;;;6.53;2.78;;;22.00;38.90;;;;;;5020783;28;20026;-61
2023/06/14 03:14:00;;;;;;;7.35;2.60;;;22.00;38.90;;;;;;5023141;28;20134;-61
2023/06/14 03:16:29;;;;;;;6.18;2.38;;;22.00;39.00;;;;;;5017178;28;20036;-61
2023/06/14 03:18:55;;;;;;;6.68;2.60;;;21.90;39.00;;;;;;5026428;28;20021;-61
2023/06/14 03:21:24;;;;;;;5.85;2.47;;;21.90;39.20;;;;;;5012573;28;20021;-61
2023/06/14 03:23:52;;;;;;;7.07;2.53;;;21.90;39.20;;;;;;5023705;28;20520;-61
2023/06/14 03:26:18;;;;;;;7.78;2.47;;;21.90;39.30;;;;;;5029374;28;20342;-61
2023/06/14 03:28:46;;;;;;;5.88;2.53;;;21.90;39.40;;;;;;5028156;28;20045;-61
2023/06/14 03:31:13;;;;;;;6.63;3.00;;;21.90;39.40;;;;;;5015237;28;20045;-61
2023/06/14 03:33:40;;;;;;;5.30;2.20;;;21.80;39.40;;;;;;5027233;28;20022;-62
2023/06/14 03:36:09;;;;;;;5.95;2.47;;;21.80;39.60;;;;;;5008529;28;20100;-61
2023/06/14 03:38:35;;;;;;;6.18;2.75;;;21.80;39.60;;;;;;5029481;28;20021;-61
2023/06/14 03:41:02;;;;;;;6.50;2.53;;;21.80;39.70;;;;;;5022744;28;20022;-61
2023/06/14 03:43:30;;;;;;;6.07;2.65;;;21.80;39.80;;;;;;5024102;28;20022;-62
2023/06/14 03:45:55;;;;;;;5.22;2.60;;;21.70;39.80;;;;;;5014865;28;20033;-61
2023/06/14 03:48:23;;;;;;;8.60;2.85;;;21.70;39.80;;;;;;5029295;28;20062;-61
2023/06/14 03:50:48;;;;;;;9.20;2.88;;;21.70;39.90;;;;;;5019241;28;20029;-61
2023/06/14 03:53:14;;;;;;;10.30;3.15;;;21.70;40.00;;;;;;5023831;28;20033;-61
2023/06/14 03:55:43;;;;;;;6.50;2.60;;;21.70;40.20;;;;;;5021391;28;20137;-62
2023/06/14 03:58:10;;;;;;;6.80;2.58;;;21.60;40.20;;;;;;5032126;28;20030;-61
2023/06/14 04:00:37;;;;;;;7.32;2.50;;;21.60;40.30;;;;;;5020374;28;20033;-61
2023/06/14 04:03:05;;;;;;;6.57;2.95;;;21.60;40.40;;;;;;5029971;28;20424;-61
2023/06/14 04:05:31;;;;;;;6.60;2.75;;;21.60;40.40;;;;;;5029563;28;20057;-61
2023/06/14 04:07:58;;;;;;;6.65;2.47;;;21.60;40.50;;;;;;5032357;28;20106;-61
2023/06/14 04:10:24;;;;;;;6.57;2.50;;;21.60;40.50;;;;;;5019652;28;20388;-61
2023/06/14 04:12:51;;;;;;;5.85;2.60;;;21.60;40.50;;;;;;5032014;28;20048;-61
2023/06/14 04:15:17;;;;;;;6.47;2.72;;;21.60;40.60;;;;;;5025751;28;20029;-61
2023/06/14 04:17:44;;;;;;;6.97;2.70;;;21.50;40.70;;;;;;5024540;28;20158;-61
2023/06/14 04:20:10;;;;;;;6.25;2.70;;;21.50;40.80;;;;;;5032219;28;20045;-61
2023/06/14 04:22:36;;;;;;;7.03;3.10;;;21.50;40.90;;;;;;5030278;28;20349;-61
2023/06/14 04:25:06;;;;;;;7.78;2.75;;;21.50;40.90;;;;;;5033125;28;20491;-61
2023/06/14 04:27:35;;;;;;;6.45;2.50;;;21.50;41.00;;;;;;5030111;28;20030;-61
2023/06/14 04:30:02;;;;;;;5.03;2.33;;;21.50;41.10;;;;;;5022682;28;20306;-61
2023/06/14 04:32:38;;;;;;;5.38;2.85;;;21.50;41.20;;;;;;5022976;28;20022;-61
2023/06/14 04:35:08;;;;;;;6.88;2.58;;;21.50;41.20;;;;;;5032807;28;20029;-61
2023/06/14 04:37:35;;;;;;;8.00;2.72;;;21.50;41.20;;;;;;5028165;28;20068;-61
2023/06/14 04:40:01;;;;;;;5.70;2.53;;;21.50;41.30;;;;;;5028758;28;20057;-61
2023/06/14 04:42:30;;;;;;;6.95;2.80;;;21.50;41.40;;;;;;5031610;28;20036;-62
2023/06/14 04:44:56;;;;;;;6.30;2.40;;;21.50;41.40;;;;;;5034588;28;20022;-61
2023/06/14 04:47:29;;;;;;;7.15;2.72;;;21.50;41.50;;;;;;5033029;28;20026;-61
2023/06/14 04:49:57;;;;;;;5.15;2.47;;;21.50;41.60;;;;;;5014261;28;20359;-61
2023/06/14 04:52:26;;;;;;;6.95;2.60;;;21.50;41.70;;;;;;5024013;28;20109;-61
2023/06/14 04:54:54;;;;;;;7.10;2.33;;;21.50;41.80;;;;;;5033411;28;20382;-61
2023/06/14 04:57:22;;;;;;;6.45;2.72;;;21.50;41.80;;;;;;5027369;28;20079;-61
2023/06/14 04:59:54;;;;;;;7.97;2.78;;;21.50;41.80;;;;;;5027805;28;20026;-61
2023/06/14 05:02:22;;;;;;;6.68;3.08;;;21.50;41.80;;;;;;5033700;28;20097;-61
2023/06/14 05:04:47;;;;;;;5.57;2.60;;;21.50;41.80;;;;;;5017707;28;20037;-61
2023/06/14 05:07:14;;;;;;;5.13;2.42;;;21.50;41.80;;;;;;5011687;28;20025;-61
2023/06/14 05:13:28;;;;;;;6.60;2.40;;;21.70;41.80;;;;;;5032578;28;20393;-61
2023/06/14 05:15:55;;;;;;;7.90;2.67;;;21.70;41.60;;;;;;5019106;28;20100;-61
2023/06/14 05:18:21;;;;;;;5.85;2.60;;;21.80;41.80;;;;;;5036721;28;20033;-61
2023/06/14 05:20:46;;;;;;;5.20;2.58;;;21.90;41.80;;;;;;5029810;28;20137;-62
2023/06/14 05:23:14;;;;;;;7.70;2.92;;;22.00;41.80;;;;;;5036591;28;20021;-61
2023/06/14 05:25:45;;;;;;;5.55;2.58;;;22.10;41.60;;;;;;5034648;28;20029;-61
2023/06/14 05:28:11;;;;;;;8.10;3.20;;;22.30;41.50;;;;;;5005190;28;20108;-61
2023/06/14 05:30:39;;;;;;;5.53;2.40;;;22.40;41.40;;;;;;5029543;28;20041;-61
2023/06/14 05:33:05;;;;;;;7.97;2.85;;;22.50;41.20;;;;;;5034117;28;20037;-61
2023/06/14 05:35:30;;;;;;;5.50;2.65;;;22.50;41.10;;;;;;5034319;28;20454;-61
2023/06/14 05:37:56;;;;;;;7.40;2.85;;;22.70;41.10;;;;;;5037152;28;20419;-61
2023/06/14 05:40:25;;;;;;;5.65;2.50;;;22.70;41.00;;;;;;5034376;28;20026;-61
2023/06/14 05:42:51;;;;;;;5.38;2.63;;;22.80;41.00;;;;;;5033059;28;20443;-62
2023/06/14 05:45:17;;;;;;;7.43;2.90;;;22.80;40.90;;;;;;5028432;28;20140;-62
2023/06/14 05:47:42;;;;;;;5.80;2.50;;;22.80;40.80;;;;;;5020312;28;20364;-62
2023/06/14 05:50:09;;;;;;;6.38;2.90;;;22.90;40.80;;;;;;5034667;28;20091;-61
2023/06/14 05:52:36;;;;;;;5.38;2.80;;;23.00;40.80;;;;;;5029919;28;20406;-62
2023/06/14 05:55:03;;;;;;;7.30;2.72;;;23.00;40.70;;;;;;5034074;28;20091;-62
2023/06/14 05:57:29;;;;;;;5.32;2.60;;;23.10;40.70;;;;;;5029959;28;20033;-61
2023/06/14 05:59:55;;;;;;;11.52;2.80;;;23.20;40.70;;;;;;5027239;28;20117;-61
2023/06/14 06:02:21;;;;;;;6.38;2.70;;;23.30;40.80;;;;;;5032955;28;20025;-61
2023/06/14 06:04:46;;;;;;;7.45;3.00;;;23.30;40.90;;;;;;5032400;28;20119;-61
2023/06/14 06:07:12;;;;;;;8.52;2.72;;;23.40;40.90;;;;;;5029979;28;20095;-61
2023/06/14 06:09:38;;;;;;;5.85;2.60;;;23.50;40.70;;;;;;5032483;28;20116;-61
2023/06/14 06:12:06;;;;;;;5.10;2.47;;;23.50;40.50;;;;;;5030383;28;20056;-62
2023/06/14 06:14:32;;;;;;;6.32;2.33;;;23.60;40.60;;;;;;5030134;28;20429;-62
2023/06/14 06:16:58;;;;;;;6.00;2.70;;;23.70;40.40;;;;;;5015048;28;20030;-61
2023/06/14 06:19:24;;;;;;;6.68;2.90;;;23.80;40.40;;;;;;5026737;28;20120;-61
2023/06/14 06:21:50;;;;;;;5.97;2.85;;;23.90;40.40;;;;;;5032968;28;20025;-62
2023/06/14 06:24:16;;;;;;;6.00;2.63;;;24.00;40.10;;;;;;5032748;28;20049;-62
2023/06/14 06:26:42;;;;;;;6.35;2.50;;;24.10;40.00;;;;;;5032853;28;20029;-62
2023/06/14 06:29:08;;;;;;;7.10;2.83;;;24.20;40.00;;;;;;5032497;28;20056;-62
2023/06/14 06:31:34;;;;;;;6.45;3.20;;;24.30;39.90;;;;;;5034317;28;20040;-62
2023/06/14 06:34:00;;;;;;;4.50;2.38;;;24.40;39.60;;;;;;5029046;28;20120;-62
2023/06/14 06:36:25;;;;;;;6.78;2.78;;;24.40;39.40;;;;;;5034230;28;20475;-62
2023/06/14 06:38:51;;;;;;;6.90;2.75;;;24.50;39.40;;;;;;5031010;28;20477;-62
2023/06/14 06:41:17;;;;;;;8.90;2.72;;;24.60;39.20;;;;;;5027602;28;20075;-63
2023/06/14 06:43:43;;;;;;;5.70;2.42;;;24.70;39.20;;;;;;5028906;28;20121;-63
2023/06/14 06:46:09;;;;;;;6.57;2.88;;;24.90;39.10;;;;;;5033331;28;20026;-63
2023/06/14 06:48:35;;;;;;;6.25;2.58;;;24.90;38.90;;;;;;5033268;28;20025;-63
2023/06/14 06:51:01;;;;;;;7.95;2.70;;;25.10;38.80;;;;;;5034671;28;20323;-63
2023/06/14 06:53:26;;;;;;;5.05;2.47;;;25.20;38.60;;;;;;5032365;28;20379;-62
2023/06/14 06:55:52;;;;;;;5.20;2.45;;;25.30;38.50;;;;;;5029292;28;20423;-63
2023/06/14 06:58:18;;;;;;;5.13;2.35;;;25.50;38.30;;;;;;5033272;28;20382;-63
2023/06/14 07:00:44;;;;;;;6.63;2.67;;;25.60;38.20;;;;;;5033186;28;20450;-63
2023/06/14 07:03:11;;;;;;;5.45;2.60;;;25.70;38.00;;;;;;5034321;28;20373;-63
2023/06/14 07:05:37;;;;;;;5.95;2.75;;;25.80;37.60;;;;;;5027713;28;20033;-63
2023/06/14 07:08:03;;;;;;;4.50;2.20;;;25.90;37.50;;;;;;5033540;28;20021;-63
2023/06/14 07:10:29;;;;;;;5.32;2.25;;;26.00;37.40;;;;;;5034391;28;20021;-63
2023/06/14 07:12:55;;;;;;;5.72;2.53;;;26.20;37.30;;;;;;5033834;28;20105;-62
2023/06/14 07:15:21;;;;;;;6.28;2.53;;;26.30;37.20;;;;;;5025466;28;20029;-63
2023/06/14 07:17:46;;;;;;;5.15;2.35;;;26.50;37.10;;;;;;5033999;28;20095;-63
2023/06/14 07:20:13;;;;;;;5.82;2.30;;;26.60;36.90;;;;;;5033040;28;20029;-63
2023/06/14 07:22:41;;;;;;;4.55;2.13;;;26.70;36.80;;;;;;5033842;28;20423;-63
2023/06/14 07:25:14;;;;;;;5.38;2.35;;;26.90;36.60;;;;;;5027398;28;20080;-63
2023/06/14 07:27:41;;;;;;;4.72;2.17;;;27.10;36.50;;;;;;5034172;28;20037;-63
2023/06/14 07:30:08;;;;;;;5.18;2.42;;;27.20;36.20;;;;;;5033030;28;20030;-62
2023/06/14 07:32:34;;;;;;;5.18;2.20;;;27.30;35.90;;;;;;5033892;28;20026;-63
2023/06/14 07:35:00;;;;;;;5.43;2.10;;;27.50;35.80;;;;;;5033136;28;20088;-63
2023/06/14 07:37:25;;;;;;;7.75;2.08;;;27.50;35.60;;;;;;5032243;28;20503;-63
2023/06/14 07:39:51;;;;;;;4.85;1.90;;;27.70;35.70;;;;;;5023555;28;20163;-63
2023/06/14 07:42:17;;;;;;;4.32;1.95;;;27.80;35.50;;;;;;5032349;28;20071;-62
2023/06/14 07:44:43;;;;;;;4.85;2.08;;;28.00;35.30;;;;;;5031700;28;20108;-62
2023/06/14 07:47:08;;;;;;;5.25;2.58;;;28.10;35.00;;;;;;5031192;28;20029;-62
2023/06/14 07:49:34;;;;;;;3.30;1.77;;;28.20;34.70;;;;;;5025592;28;20018;-62
2023/06/14 07:52:00;;;;;;;6.25;1.90;;;28.30;34.50;;;;;;5033991;28;20034;-62
2023/06/14 07:54:27;;;;;;;5.90;1.90;;;28.30;34.10;;;;;;5030620;28;20021;-62
2023/06/14 07:56:53;;;;;;;4.68;1.77;;;28.40;33.90;;;;;;5025041;28;20033;-63
2023/06/14 07:59:19;;;;;;;3.92;1.52;;;28.60;33.70;;;;;;5030530;28;20090;-62
2023/06/14 08:01:46;;;;;;;2.65;1.35;;;28.60;33.50;;;;;;5034364;28;20063;-63
2023/06/14 08:04:16;;;;;;;4.13;1.75;;;28.70;33.20;;;;;;5031593;28;20065;-63
2023/06/14 08:06:45;;;;;;;5.65;1.70;;;28.70;32.90;;;;;;5029831;28;20053;-63
2023/06/14 08:09:12;;;;;;;3.00;1.50;;;28.80;32.90;;;;;;5033492;28;20031;-63
2023/06/14 08:11:38;;;;;;;4.85;1.80;;;28.80;32.80;;;;;;5031508;28;20041;-63
2023/06/14 08:14:04;;;;;;;3.75;1.58;;;28.90;32.70;;;;;;5035001;28;20386;-63
2023/06/14 08:16:30;;;;;;;6.03;1.55;;;28.90;32.60;;;;;;5036942;28;20091;-63
2023/06/14 08:18:56;;;;;;;3.08;1.60;;;29.00;32.60;;;;;;5034205;28;20037;-63
2023/06/14 08:21:21;;;;;;;2.78;1.48;;;29.10;32.60;;;;;;5026507;28;20026;-62
2023/06/14 08:23:47;;;;;;;3.80;1.70;;;29.20;32.60;;;;;;5035582;28;20115;-62
2023/06/14 08:26:13;;;;;;;3.97;1.73;;;29.30;32.40;;;;;;5014979;28;20097;-63
2023/06/14 08:28:39;;;;;;;2.88;1.40;;;29.40;32.90;;;;;;5012110;28;20033;-62
2023/06/14 08:31:05;;;;;;;3.85;1.70;;;29.40;32.10;;;;;;5016717;28;20473;-62
2023/06/14 08:33:33;;;;;;;5.80;2.08;;;29.40;31.90;;;;;;5036208;28;20029;-63
2023/06/14 08:35:58;;;;;;;5.63;1.88;;;29.50;31.70;;;;;;5034700;28;20029;-63
2023/06/14 08:38:24;;;;;;;6.13;1.80;;;29.60;31.60;;;;;;5034407;28;20369;-62
2023/06/14 08:40:52;;;;;;;4.35;1.80;;;29.60;31.70;;;;;;5033239;28;20029;-62
2023/06/14 08:43:18;;;;;;;4.05;1.80;;;29.60;31.50;;;;;;5034441;28;20032;-61
2023/06/14 08:45:48;;;;;;;5.07;1.98;;;29.60;31.50;;;;;;5024065;28;20044;-65
2023/06/14 08:48:17;;;;;;;4.85;1.80;;;29.70;31.60;;;;;;5036035;28;20030;-61
2023/06/14 08:50:45;;;;;;;5.53;2.00;;;29.70;31.50;;;;;;5032582;28;20041;-61
2023/06/14 08:53:19;;;;;;;3.35;1.60;;;29.70;31.10;;;;;;5035416;28;20021;-62
2023/06/14 08:55:45;;;;;;;3.72;1.80;;;29.70;30.80;;;;;;5032803;28;20367;-62
2023/06/14 08:58:14;;;;;;;4.55;1.80;;;29.80;30.50;;;;;;5035566;28;20029;-62
2023/06/14 09:00:41;;;;;;;6.63;1.75;;;29.90;30.50;;;;;;5031647;28;20037;-62
2023/06/14 09:03:12;;;;;;;3.92;1.75;;;30.00;30.60;;;;;;5035214;28;20098;-62
2023/06/14 09:05:39;;;;;;;6.28;1.80;;;30.10;30.50;;;;;;5025827;28;20113;-62
2023/06/14 09:08:05;;;;;;;3.53;1.60;;;30.20;30.60;;;;;;5036617;28;20030;-62
2023/06/14 09:10:36;;;;;;;5.45;1.73;;;30.30;30.60;;;;;;5021414;28;20029;-62
2023/06/14 09:13:03;;;;;;;4.88;1.90;;;30.40;30.40;;;;;;5015413;28;20061;-63
2023/06/14 09:15:30;;;;;;;4.70;1.73;;;30.50;30.40;;;;;;5035228;28;20029;-62
2023/06/14 09:17:55;;;;;;;4.03;1.67;;;30.50;31.00;;;;;;5022221;28;20033;-62
2023/06/14 09:20:24;;;;;;;3.28;1.45;;;30.60;30.20;;;;;;5031835;28;20025;-62
2023/06/14 09:22:50;;;;;;;3.20;1.55;;;30.70;30.00;;;;;;5034524;28;20411;-62
2023/06/14 09:25:17;;;;;;;3.90;1.50;;;30.70;29.80;;;;;;5034547;28;20033;-63
2023/06/14 09:27:45;;;;;;;3.70;1.80;;;30.70;29.70;;;;;;5036275;28;20025;-62
2023/06/14 09:30:11;;;;;;;3.70;1.70;;;30.70;29.70;;;;;;5034657;28;20026;-62
2023/06/14 09:32:42;;;;;;;3.42;1.60;;;30.80;29.80;;;;;;5028712;28;20091;-62
2023/06/14 09:35:08;;;;;;;3.05;1.33;;;30.80;29.80;;;;;;5034195;28;20108;-62
2023/06/14 09:37:35;;;;;;;3.30;1.40;;;30.90;29.90;;;;;;5036143;28;20071;-62
2023/06/14 09:40:03;;;;;;;2.85;1.48;;;31.00;29.80;;;;;;5034329;28;20104;-62
2023/06/14 09:42:29;;;;;;;2.97;1.30;;;31.10;29.90;;;;;;5030403;28;20044;-62
2023/06/14 09:44:56;;;;;;;4.00;1.58;;;31.10;29.80;;;;;;5028652;28;20095;-63
2023/06/14 09:47:23;;;;;;;3.10;1.38;;;31.10;29.80;;;;;;5035793;28;20029;-62
2023/06/14 09:49:50;;;;;;;3.22;1.42;;;31.10;29.80;;;;;;5033839;28;20113;-62
2023/06/14 09:52:20;;;;;;;3.53;1.40;;;31.20;29.80;;;;;;5032706;28;20022;-62
2023/06/14 09:54:47;;;;;;;5.40;1.70;;;31.20;29.90;;;;;;5031158;28;20107;-63
2023/06/14 09:57:15;;;;;;;4.28;1.50;;;31.30;29.90;;;;;;5035955;28;20048;-63
2023/06/14 09:59:46;;;;;;;6.70;1.42;;;31.30;29.40;;;;;;5029292;28;20034;-62
2023/06/14 10:02:25;;;;;;;2.70;1.27;;;31.30;29.00;;;;;;5023812;28;20021;-62
2023/06/14 10:04:57;;;;;;;3.47;1.63;;;31.20;28.90;;;;;;5031756;28;20033;-62
2023/06/14 10:07:26;;;;;;;3.70;1.58;;;31.30;29.00;;;;;;5032466;28;20116;-62
2023/06/14 10:09:54;;;;;;;2.75;1.17;;;31.30;28.90;;;;;;5030210;28;20029;-62
2023/06/14 10:12:22;;;;;;;3.97;1.50;;;31.30;28.90;;;;;;5034864;28;20067;-62
2023/06/14 10:14:50;;;;;;;4.07;1.60;;;31.40;29.00;;;;;;5031201;28;20076;-62
2023/06/14 10:17:48;;;;;;;4.88;2.08;;;31.40;29.00;;;;;;5017391;28;20029;-62
2023/06/14 10:20:27;;;;;;;3.30;1.30;;;31.50;29.30;;;;;;5026688;28;20052;-62
2023/06/14 10:23:08;;;;;;;5.55;1.77;;;31.60;29.30;;;;;;5013983;28;20438;-62
2023/06/14 10:25:34;;;;;;;5.85;1.60;;;31.60;29.20;;;;;;5023638;28;20517;-64
2023/06/14 10:28:24;;;;;;;3.30;1.30;;;31.60;29.10;;;;;;5048606;28;20052;-63
2023/06/14 10:31:09;;;;;;;3.45;1.65;;;31.70;28.90;;;;;;5032545;28;20029;-62
2023/06/14 10:33:40;;;;;;;4.85;1.40;;;31.60;28.70;;;;;;5023321;28;20059;-62
2023/06/14 10:36:26;;;;;;;2.47;1.20;;;31.60;28.70;;;;;;5023590;28;20044;-62
2023/06/14 10:38:59;;;;;;;3.35;1.60;;;31.60;28.80;;;;;;5028351;28;20147;-63
2023/06/14 10:41:29;;;;;;;2.55;1.30;;;31.50;28.80;;;;;;5031183;28;20045;-62
2023/06/14 10:44:13;;;;;;;3.73;1.30;;;31.50;28.80;;;;;;5026373;28;20029;-62
2023/06/14 10:46:40;;;;;;;3.15;1.50;;;31.50;28.80;;;;;;5032742;28;20272;-61
2023/06/14 10:49:06;;;;;;;3.78;1.40;;;31.50;28.80;;;;;;5024331;28;20024;-62
2023/06/14 10:51:47;;;;;;;3.40;1.50;;;31.60;28.80;;;;;;5032457;28;20112;-62
2023/06/14 10:54:13;;;;;;;2.63;1.40;;;31.60;28.70;;;;;;5032503;28;20048;-62
2023/06/14 10:56:50;;;;;;;2.55;1.38;;;31.60;28.70;;;;;;5034080;28;20311;-62
2023/06/14 10:59:17;;;;;;;3.92;1.50;;;31.70;28.60;;;;;;5027565;28;20041;-62
2023/06/14 11:01:52;;;;;;;2.42;1.20;;;31.70;28.50;;;;;;5023263;28;20057;-62
2023/06/14 11:04:20;;;;;;;2.60;1.30;;;31.60;28.40;;;;;;5015164;28;20034;-62
2023/06/14 11:06:48;;;;;;;5.68;1.73;;;31.70;28.70;;;;;;5025057;28;20398;-62
2023/06/14 11:09:26;;;;;;;2.58;1.38;;;31.70;28.50;;;;;;5026010;28;20026;-61
2023/06/14 11:11:55;;;;;;;3.85;1.70;;;31.70;28.40;;;;;;5014574;28;20033;-60
2023/06/14 11:14:21;;;;;;;5.20;2.03;;;31.70;28.40;;;;;;5033054;28;20433;-61
2023/06/14 11:16:50;;;;;;;4.88;1.45;;;31.70;28.60;;;;;;5030884;28;20120;-61
2023/06/14 11:19:19;;;;;;;3.17;1.60;;;31.80;28.70;;;;;;5017761;28;20112;-62
2023/06/14 11:21:48;;;;;;;4.07;1.70;;;31.80;28.70;;;;;;5031141;28;20528;-62
2023/06/14 11:24:13;;;;;;;5.72;1.60;;;31.80;28.40;;;;;;5032177;28;20450;-62
2023/06/14 11:26:40;;;;;;;3.17;1.58;;;31.70;28.40;;;;;;5033341;28;20109;-61
2023/06/14 11:29:06;;;;;;;3.03;1.55;;;31.70;28.30;;;;;;5032078;28;20041;-61
2023/06/14 11:31:32;;;;;;;2.55;1.27;;;31.70;28.20;;;;;;5024992;28;20029;-62
2023/06/14 11:33:59;;;;;;;3.15;1.60;;;31.70;28.20;;;;;;5031593;28;20029;-62
2023/06/14 11:36:33;;;;;;;4.90;1.60;;;31.70;28.20;;;;;;5032989;28;20443;-61
2023/06/14 11:39:09;;;;;;;3.60;1.50;;;31.70;28.20;;;;;;5032876;28;20375;-61
2023/06/14 11:41:43;;;;;;;3.92;1.83;;;31.80;28.30;;;;;;5024217;28;20026;-62
2023/06/14 11:44:09;;;;;;;3.80;1.48;;;31.70;28.30;;;;;;5032605;28;20370;-61
2023/06/14 11:46:35;;;;;;;3.15;1.60;;;31.60;28.40;;;;;;5033491;28;20021;-61
2023/06/14 11:49:04;;;;;;;4.55;1.58;;;31.50;28.40;;;;;;5032168;28;20021;-61
2023/06/14 11:51:34;;;;;;;5.78;1.48;;;31.50;28.60;;;;;;5032952;28;20030;-62
2023/06/14 11:54:03;;;;;;;3.42;1.50;;;31.40;28.60;;;;;;5022076;28;20026;-62
2023/06/14 11:56:31;;;;;;;4.82;1.98;;;31.20;28.50;;;;;;5046523;28;20022;-62
2023/06/14 11:58:57;;;;;;;5.65;1.60;;;31.10;28.60;;;;;;5032963;28;20029;-62
2023/06/14 12:01:23;;;;;;;2.35;1.27;;;31.00;28.70;;;;;;5032806;28;20029;-62
2023/06/14 12:03:51;;;;;;;3.05;1.50;;;30.90;28.70;;;;;;5029279;28;20025;-62
2023/06/14 12:06:25;;;;;;;3.72;1.45;;;30.80;28.70;;;;;;5032298;28;20100;-62
2023/06/14 12:08:50;;;;;;;4.30;1.67;;;30.80;28.80;;;;;;5031866;28;20025;-62
2023/06/14 12:11:16;;;;;;;2.97;1.30;;;30.60;28.90;;;;;;5032708;28;20178;-62
2023/06/14 12:13:43;;;;;;;3.28;1.17;;;30.60;29.00;;;;;;4990200;28;1212257;-62
2023/06/14 12:16:10;;;;;;;4.32;1.40;;;30.50;29.10;;;;;;5031901;28;20071;-62
2023/06/14 12:18:39;;;;;;;5.30;1.75;;;30.40;29.10;;;;;;5033704;28;20033;-62
2023/06/14 12:21:09;;;;;;;4.68;1.85;;;30.30;29.20;;;;;;5033496;28;20059;-62
2023/06/14 12:23:46;;;;;;;4.88;1.52;;;30.20;29.30;;;;;;5030002;28;20105;-62
2023/06/14 12:26:17;;;;;;;5.85;1.65;;;30.10;29.50;;;;;;5020598;28;20064;-62
2023/06/14 12:28:44;;;;;;;1.98;1.10;;;30.00;29.50;;;;;;5032947;28;20417;-62
2023/06/14 12:31:12;;;;;;;3.30;1.58;;;30.00;29.70;;;;;;5033624;28;20079;-61
2023/06/14 12:33:38;;;;;;;6.90;1.80;;;29.90;29.80;;;;;;5032400;28;20034;-61
2023/06/14 12:36:05;;;;;;;6.00;1.60;;;29.80;29.80;;;;;;5028503;28;20037;-62
2023/06/14 12:38:35;;;;;;;3.72;1.33;;;29.70;29.80;;;;;;5033215;28;20025;-62
2023/06/14 12:41:01;;;;;;;2.28;1.20;;;29.60;29.80;;;;;;5032456;28;20041;-62
2023/06/14 12:43:27;;;;;;;5.22;1.85;;;29.60;29.90;;;;;;5032318;28;20021;-62
2023/06/14 12:45:53;;;;;;;2.75;1.50;;;29.50;30.00;;;;;;5035010;28;20033;-63
2023/06/14 12:48:19;;;;;;;2.72;1.52;;;29.40;30.10;;;;;;5034960;28;20029;-61
2023/06/14 12:50:45;;;;;;;4.20;1.63;;;29.40;30.30;;;;;;5036424;28;20331;-61
2023/06/14 12:53:12;;;;;;;3.03;1.30;;;29.30;30.40;;;;;;5034401;28;20116;-62